sensor_id;sensor_type;location;lat;lon;timestamp;P1;durP1;ratioP1;P2;durP2;ratioP2
57893;SDS011;43710;47.460;19.034;2023-05-02T03:58:06;4.68;;;2.90;;
57893;SDS011;43710;47.460;19.034;2023-05-02T04:01:12;5.93;;;2.80;;
57893;SDS011;43710;47.460;19.034;2023-05-02T04:04:16;5.93;;;2.60;;
57893;SDS011;43710;47.460;19.034;2023-05-02T04:07:20;4.47;;;2.58;;
57893;SDS011;43710;47.460;19.034;2023-05-02T04:10:23;9.02;;;3.03;;
57893;SDS011;43710;47.460;19.034;2023-05-02T04:13:25;6.03;;;3.55;;
57893;SDS011;43710;47.460;19.034;2023-05-02T04:16:30;6.78;;;3.00;;
57893;SDS011;43710;47.460;19.034;2023-05-02T04:19:32;10.45;;;2.53;;
57893;SDS011;43710;47.460;19.034;2023-05-02T04:22:35;6.28;;;3.00;;
57893;SDS011;43710;47.460;19.034;2023-05-02T04:25:40;7.12;;;2.70;;
57893;SDS011;43710;47.460;19.034;2023-05-02T04:28:43;3.87;;;2.80;;
57893;SDS011;43710;47.460;19.034;2023-05-02T04:31:46;6.12;;;3.40;;
57893;SDS011;43710;47.460;19.034;2023-05-02T04:34:50;6.47;;;3.10;;
57893;SDS011;43710;47.460;19.034;2023-05-02T04:37:52;6.45;;;3.08;;
57893;SDS011;43710;47.460;19.034;2023-05-02T04:40:54;5.50;;;2.67;;
57893;SDS011;43710;47.460;19.034;2023-05-02T04:43:58;4.75;;;2.90;;
57893;SDS011;43710;47.460;19.034;2023-05-02T04:47:02;4.70;;;2.92;;
57893;SDS011;43710;47.460;19.034;2023-05-02T04:50:05;7.37;;;3.37;;
57893;SDS011;43710;47.460;19.034;2023-05-02T04:53:09;5.40;;;3.62;;
57893;SDS011;43710;47.460;19.034;2023-05-02T04:56:12;7.65;;;3.10;;
57893;SDS011;43710;47.460;19.034;2023-05-02T04:59:14;5.80;;;3.05;;
57893;SDS011;43710;47.460;19.034;2023-05-02T05:02:17;8.10;;;3.40;;
57893;SDS011;43710;47.460;19.034;2023-05-02T05:05:20;4.37;;;3.30;;
57893;SDS011;43710;47.460;19.034;2023-05-02T05:08:23;5.78;;;3.28;;
57893;SDS011;43710;47.460;19.034;2023-05-02T05:11:25;6.78;;;3.00;;
57893;SDS011;43710;47.460;19.034;2023-05-02T05:14:28;5.78;;;3.15;;
57893;SDS011;43710;47.460;19.034;2023-05-02T05:17:32;7.35;;;3.78;;
57893;SDS011;43710;47.460;19.034;2023-05-02T05:20:35;6.95;;;3.50;;
57893;SDS011;43710;47.460;19.034;2023-05-02T05:23:38;7.25;;;3.33;;
57893;SDS011;43710;47.460;19.034;2023-05-02T05:26:40;8.05;;;3.70;;
57893;SDS011;43710;47.460;19.034;2023-05-02T05:29:44;12.43;;;3.55;;
57893;SDS011;43710;47.460;19.034;2023-05-02T05:32:46;5.55;;;3.12;;
57893;SDS011;43710;47.460;19.034;2023-05-02T05:35:48;7.15;;;3.72;;
57893;SDS011;43710;47.460;19.034;2023-05-02T05:38:51;9.38;;;3.97;;
57893;SDS011;43710;47.460;19.034;2023-05-02T05:41:53;7.37;;;4.43;;
57893;SDS011;43710;47.460;19.034;2023-05-02T05:44:56;6.75;;;3.92;;
57893;SDS011;43710;47.460;19.034;2023-05-02T05:47:58;7.45;;;4.20;;
57893;SDS011;43710;47.460;19.034;2023-05-02T05:51:04;8.05;;;3.92;;
57893;SDS011;43710;47.460;19.034;2023-05-02T05:54:07;10.43;;;4.35;;
57893;SDS011;43710;47.460;19.034;2023-05-02T05:57:10;10.30;;;4.22;;
57893;SDS011;43710;47.460;19.034;2023-05-02T06:00:12;8.50;;;4.35;;
57893;SDS011;43710;47.460;19.034;2023-05-02T06:03:16;6.75;;;4.25;;
57893;SDS011;43710;47.460;19.034;2023-05-02T06:06:19;7.22;;;4.28;;
57893;SDS011;43710;47.460;19.034;2023-05-02T06:09:22;6.45;;;4.32;;
57893;SDS011;43710;47.460;19.034;2023-05-02T06:12:25;8.52;;;4.30;;
57893;SDS011;43710;47.460;19.034;2023-05-02T06:15:27;10.40;;;4.85;;
57893;SDS011;43710;47.460;19.034;2023-05-02T06:18:30;7.32;;;4.43;;
57893;SDS011;43710;47.460;19.034;2023-05-02T06:21:35;9.27;;;4.60;;
57893;SDS011;43710;47.460;19.034;2023-05-02T06:24:38;8.75;;;4.00;;
57893;SDS011;43710;47.460;19.034;2023-05-02T06:27:40;11.23;;;4.82;;
57893;SDS011;43710;47.460;19.034;2023-05-02T06:30:43;10.63;;;4.10;;
57893;SDS011;43710;47.460;19.034;2023-05-02T06:33:45;12.90;;;5.07;;
57893;SDS011;43710;47.460;19.034;2023-05-02T06:36:47;8.77;;;4.85;;
57893;SDS011;43710;47.460;19.034;2023-05-02T06:39:50;10.65;;;4.60;;
57893;SDS011;43710;47.460;19.034;2023-05-02T06:42:52;13.73;;;4.32;;
57893;SDS011;43710;47.460;19.034;2023-05-02T06:45:55;6.10;;;4.30;;
57893;SDS011;43710;47.460;19.034;2023-05-02T06:48:58;9.50;;;4.50;;
57893;SDS011;43710;47.460;19.034;2023-05-02T06:52:00;8.05;;;4.55;;
57893;SDS011;43710;47.460;19.034;2023-05-02T06:55:03;8.88;;;4.50;;
57893;SDS011;43710;47.460;19.034;2023-05-02T06:58:06;6.95;;;3.67;;
57893;SDS011;43710;47.460;19.034;2023-05-02T07:01:08;7.87;;;4.12;;
57893;SDS011;43710;47.460;19.034;2023-05-02T07:04:11;9.98;;;4.60;;
57893;SDS011;43710;47.460;19.034;2023-05-02T07:07:14;6.80;;;3.87;;
57893;SDS011;43710;47.460;19.034;2023-05-02T07:10:19;5.40;;;3.97;;
57893;SDS011;43710;47.460;19.034;2023-05-02T07:13:22;9.23;;;4.37;;
57893;SDS011;43710;47.460;19.034;2023-05-02T07:16:24;9.48;;;4.28;;
57893;SDS011;43710;47.460;19.034;2023-05-02T07:19:26;8.10;;;3.72;;
57893;SDS011;43710;47.460;19.034;2023-05-02T07:22:29;7.97;;;3.83;;
57893;SDS011;43710;47.460;19.034;2023-05-02T07:25:31;9.25;;;3.85;;
57893;SDS011;43710;47.460;19.034;2023-05-02T07:28:33;6.60;;;4.00;;
57893;SDS011;43710;47.460;19.034;2023-05-02T07:31:36;8.20;;;3.87;;
57893;SDS011;43710;47.460;19.034;2023-05-02T07:34:38;9.25;;;3.80;;
57893;SDS011;43710;47.460;19.034;2023-05-02T07:37:40;11.57;;;4.15;;
57893;SDS011;43710;47.460;19.034;2023-05-02T07:40:42;6.78;;;4.00;;
57893;SDS011;43710;47.460;19.034;2023-05-02T07:43:45;7.15;;;4.20;;
57893;SDS011;43710;47.460;19.034;2023-05-02T07:46:47;10.75;;;4.62;;
57893;SDS011;43710;47.460;19.034;2023-05-02T07:49:51;7.62;;;4.00;;
57893;SDS011;43710;47.460;19.034;2023-05-02T07:52:54;6.45;;;4.28;;
57893;SDS011;43710;47.460;19.034;2023-05-02T07:55:57;7.78;;;3.80;;
57893;SDS011;43710;47.460;19.034;2023-05-02T07:58:59;12.00;;;4.75;;
57893;SDS011;43710;47.460;19.034;2023-05-02T08:02:01;8.80;;;3.97;;
57893;SDS011;43710;47.460;19.034;2023-05-02T08:05:05;7.37;;;4.15;;
57893;SDS011;43710;47.460;19.034;2023-05-02T08:08:08;5.30;;;4.15;;
57893;SDS011;43710;47.460;19.034;2023-05-02T08:11:11;10.15;;;4.60;;
57893;SDS011;43710;47.460;19.034;2023-05-02T08:14:14;10.75;;;4.03;;
57893;SDS011;43710;47.460;19.034;2023-05-02T08:17:17;8.63;;;4.35;;
57893;SDS011;43710;47.460;19.034;2023-05-02T08:20:19;7.95;;;4.62;;
57893;SDS011;43710;47.460;19.034;2023-05-02T08:23:23;9.32;;;4.60;;
57893;SDS011;43710;47.460;19.034;2023-05-02T08:26:26;7.95;;;4.43;;
57893;SDS011;43710;47.460;19.034;2023-05-02T08:29:29;8.93;;;4.25;;
57893;SDS011;43710;47.460;19.034;2023-05-02T08:32:32;9.82;;;4.55;;
57893;SDS011;43710;47.460;19.034;2023-05-02T08:35:34;9.48;;;4.57;;
57893;SDS011;43710;47.460;19.034;2023-05-02T08:38:37;5.25;;;4.53;;
57893;SDS011;43710;47.460;19.034;2023-05-02T08:41:39;6.87;;;4.07;;
57893;SDS011;43710;47.460;19.034;2023-05-02T08:44:41;6.75;;;3.90;;
57893;SDS011;43710;47.460;19.034;2023-05-02T08:47:44;5.32;;;3.83;;
57893;SDS011;43710;47.460;19.034;2023-05-02T08:50:47;8.32;;;3.30;;
57893;SDS011;43710;47.460;19.034;2023-05-02T08:53:51;6.30;;;3.67;;
57893;SDS011;43710;47.460;19.034;2023-05-02T08:56:55;6.65;;;4.05;;
57893;SDS011;43710;47.460;19.034;2023-05-02T09:00:00;6.10;;;3.50;;
57893;SDS011;43710;47.460;19.034;2023-05-02T09:06:32;7.15;;;3.87;;
57893;SDS011;43710;47.460;19.034;2023-05-02T09:09:35;7.57;;;3.95;;
57893;SDS011;43710;47.460;19.034;2023-05-02T09:12:38;4.07;;;3.45;;
57893;SDS011;43710;47.460;19.034;2023-05-02T09:15:41;7.37;;;3.40;;
57893;SDS011;43710;47.460;19.034;2023-05-02T09:18:45;6.18;;;3.22;;
57893;SDS011;43710;47.460;19.034;2023-05-02T09:21:49;6.93;;;3.42;;
57893;SDS011;43710;47.460;19.034;2023-05-02T09:24:54;6.65;;;3.50;;
57893;SDS011;43710;47.460;19.034;2023-05-02T09:27:58;3.97;;;3.15;;
57893;SDS011;43710;47.460;19.034;2023-05-02T09:31:06;7.03;;;3.40;;
57893;SDS011;43710;47.460;19.034;2023-05-02T09:34:16;8.77;;;3.78;;
57893;SDS011;43710;47.460;19.034;2023-05-02T09:37:34;7.45;;;3.60;;
57893;SDS011;43710;47.460;19.034;2023-05-02T09:40:36;6.50;;;3.53;;
57893;SDS011;43710;47.460;19.034;2023-05-02T09:43:39;6.50;;;3.90;;
57893;SDS011;43710;47.460;19.034;2023-05-02T09:46:42;8.93;;;3.70;;
57893;SDS011;43710;47.460;19.034;2023-05-02T09:49:46;6.22;;;3.50;;
57893;SDS011;43710;47.460;19.034;2023-05-02T09:53:00;7.40;;;3.47;;
57893;SDS011;43710;47.460;19.034;2023-05-02T09:56:06;7.00;;;3.42;;
57893;SDS011;43710;47.460;19.034;2023-05-02T09:59:12;11.68;;;3.20;;
57893;SDS011;43710;47.460;19.034;2023-05-02T10:02:16;4.50;;;2.97;;
57893;SDS011;43710;47.460;19.034;2023-05-02T10:05:19;6.95;;;3.55;;
57893;SDS011;43710;47.460;19.034;2023-05-02T10:08:23;6.60;;;3.65;;
57893;SDS011;43710;47.460;19.034;2023-05-02T10:11:28;6.37;;;3.10;;
57893;SDS011;43710;47.460;19.034;2023-05-02T10:14:38;7.45;;;3.30;;
57893;SDS011;43710;47.460;19.034;2023-05-02T10:17:44;9.57;;;3.40;;
57893;SDS011;43710;47.460;19.034;2023-05-02T10:21:00;7.12;;;3.55;;
57893;SDS011;43710;47.460;19.034;2023-05-02T10:24:09;6.10;;;3.33;;
57893;SDS011;43710;47.460;19.034;2023-05-02T10:27:12;5.53;;;3.50;;
57893;SDS011;43710;47.460;19.034;2023-05-02T10:30:15;6.75;;;3.25;;
57893;SDS011;43710;47.460;19.034;2023-05-02T10:33:19;4.03;;;3.17;;
57893;SDS011;43710;47.460;19.034;2023-05-02T10:36:23;6.82;;;3.45;;
57893;SDS011;43710;47.460;19.034;2023-05-02T10:39:25;5.82;;;3.17;;
57893;SDS011;43710;47.460;19.034;2023-05-02T10:42:28;8.60;;;3.30;;
57893;SDS011;43710;47.460;19.034;2023-05-02T10:45:32;9.10;;;3.45;;
57893;SDS011;43710;47.460;19.034;2023-05-02T10:48:35;5.65;;;3.50;;
57893;SDS011;43710;47.460;19.034;2023-05-02T10:51:40;7.12;;;3.67;;
57893;SDS011;43710;47.460;19.034;2023-05-02T10:54:43;9.65;;;3.70;;
57893;SDS011;43710;47.460;19.034;2023-05-02T11:08:29;7.50;;;4.03;;
57893;SDS011;43710;47.460;19.034;2023-05-02T11:11:40;5.78;;;3.45;;
57893;SDS011;43710;47.460;19.034;2023-05-02T11:14:45;6.85;;;3.47;;
57893;SDS011;43710;47.460;19.034;2023-05-02T11:18:22;5.93;;;3.55;;
57893;SDS011;43710;47.460;19.034;2023-05-02T11:21:27;7.57;;;3.60;;
57893;SDS011;43710;47.460;19.034;2023-05-02T11:24:38;8.65;;;3.95;;
57893;SDS011;43710;47.460;19.034;2023-05-02T11:27:41;6.60;;;3.50;;
57893;SDS011;43710;47.460;19.034;2023-05-02T11:30:46;9.73;;;3.80;;
57893;SDS011;43710;47.460;19.034;2023-05-02T11:33:56;6.00;;;4.15;;
57893;SDS011;43710;47.460;19.034;2023-05-02T11:36:58;9.43;;;4.00;;
57893;SDS011;43710;47.460;19.034;2023-05-02T11:40:10;10.23;;;3.28;;
57893;SDS011;43710;47.460;19.034;2023-05-02T11:43:16;6.18;;;3.12;;
57893;SDS011;43710;47.460;19.034;2023-05-02T11:46:20;7.40;;;3.60;;
57893;SDS011;43710;47.460;19.034;2023-05-02T11:49:22;8.10;;;3.72;;
57893;SDS011;43710;47.460;19.034;2023-05-02T11:52:25;10.00;;;3.80;;
57893;SDS011;43710;47.460;19.034;2023-05-02T11:55:27;11.60;;;3.80;;
57893;SDS011;43710;47.460;19.034;2023-05-02T11:58:30;6.40;;;3.45;;
57893;SDS011;43710;47.460;19.034;2023-05-02T12:01:34;6.40;;;3.20;;
57893;SDS011;43710;47.460;19.034;2023-05-02T12:04:41;5.75;;;3.10;;
57893;SDS011;43710;47.460;19.034;2023-05-02T12:07:46;5.20;;;2.83;;
57893;SDS011;43710;47.460;19.034;2023-05-02T12:10:52;10.73;;;2.90;;
57893;SDS011;43710;47.460;19.034;2023-05-02T12:13:57;13.52;;;3.05;;
57893;SDS011;43710;47.460;19.034;2023-05-02T12:17:00;8.25;;;3.20;;
57893;SDS011;43710;47.460;19.034;2023-05-02T12:20:03;5.70;;;2.90;;
57893;SDS011;43710;47.460;19.034;2023-05-02T12:23:08;9.82;;;3.05;;
57893;SDS011;43710;47.460;19.034;2023-05-02T12:29:21;7.75;;;2.92;;
57893;SDS011;43710;47.460;19.034;2023-05-02T12:32:26;8.20;;;3.40;;
57893;SDS011;43710;47.460;19.034;2023-05-02T12:35:34;9.40;;;3.08;;
57893;SDS011;43710;47.460;19.034;2023-05-02T12:38:36;7.87;;;3.17;;
57893;SDS011;43710;47.460;19.034;2023-05-02T12:41:39;9.80;;;3.05;;
57893;SDS011;43710;47.460;19.034;2023-05-02T12:44:47;10.45;;;3.50;;
57893;SDS011;43710;47.460;19.034;2023-05-02T12:47:52;7.93;;;3.10;;
57893;SDS011;43710;47.460;19.034;2023-05-02T12:50:54;8.10;;;2.92;;
57893;SDS011;43710;47.460;19.034;2023-05-02T12:53:57;11.63;;;3.05;;
57893;SDS011;43710;47.460;19.034;2023-05-02T12:56:59;16.62;;;3.85;;
57893;SDS011;43710;47.460;19.034;2023-05-02T13:03:07;10.18;;;3.65;;
57893;SDS011;43710;47.460;19.034;2023-05-02T13:06:11;17.17;;;3.33;;
57893;SDS011;43710;47.460;19.034;2023-05-02T13:09:13;8.75;;;3.20;;
57893;SDS011;43710;47.460;19.034;2023-05-02T13:12:16;12.98;;;3.87;;
57893;SDS011;43710;47.460;19.034;2023-05-02T13:15:19;7.95;;;3.15;;
57893;SDS011;43710;47.460;19.034;2023-05-02T13:18:21;9.65;;;3.28;;
57893;SDS011;43710;47.460;19.034;2023-05-02T13:21:24;9.93;;;3.72;;
57893;SDS011;43710;47.460;19.034;2023-05-02T13:24:26;9.38;;;3.47;;
57893;SDS011;43710;47.460;19.034;2023-05-02T13:27:28;10.05;;;3.42;;
57893;SDS011;43710;47.460;19.034;2023-05-02T13:30:31;10.05;;;3.58;;
57893;SDS011;43710;47.460;19.034;2023-05-02T13:33:33;10.82;;;3.47;;
57893;SDS011;43710;47.460;19.034;2023-05-02T13:36:36;11.02;;;3.30;;
57893;SDS011;43710;47.460;19.034;2023-05-02T13:39:44;6.78;;;3.00;;
57893;SDS011;43710;47.460;19.034;2023-05-02T13:42:47;11.80;;;3.40;;
57893;SDS011;43710;47.460;19.034;2023-05-02T13:45:49;12.63;;;3.95;;
57893;SDS011;43710;47.460;19.034;2023-05-02T13:48:53;10.75;;;3.75;;
57893;SDS011;43710;47.460;19.034;2023-05-02T13:51:55;12.20;;;3.53;;
57893;SDS011;43710;47.460;19.034;2023-05-02T13:54:57;12.93;;;3.47;;
57893;SDS011;43710;47.460;19.034;2023-05-02T13:57:59;11.23;;;3.62;;
57893;SDS011;43710;47.460;19.034;2023-05-02T14:01:03;14.25;;;3.75;;
57893;SDS011;43710;47.460;19.034;2023-05-02T14:04:06;11.02;;;4.00;;
57893;SDS011;43710;47.460;19.034;2023-05-02T14:07:10;11.12;;;3.55;;
57893;SDS011;43710;47.460;19.034;2023-05-02T14:10:12;8.10;;;3.28;;
57893;SDS011;43710;47.460;19.034;2023-05-02T14:13:14;14.70;;;4.07;;
57893;SDS011;43710;47.460;19.034;2023-05-02T14:16:17;13.70;;;3.90;;
57893;SDS011;43710;47.460;19.034;2023-05-02T14:19:19;14.40;;;3.58;;
57893;SDS011;43710;47.460;19.034;2023-05-02T14:22:21;14.60;;;4.15;;
57893;SDS011;43710;47.460;19.034;2023-05-02T14:25:24;14.65;;;3.50;;
57893;SDS011;43710;47.460;19.034;2023-05-02T14:28:26;17.60;;;4.45;;
57893;SDS011;43710;47.460;19.034;2023-05-02T14:31:28;16.10;;;4.45;;
57893;SDS011;43710;47.460;19.034;2023-05-02T14:37:36;12.70;;;3.55;;
57893;SDS011;43710;47.460;19.034;2023-05-02T14:40:39;12.18;;;3.42;;
57893;SDS011;43710;47.460;19.034;2023-05-02T14:43:41;7.60;;;3.92;;
57893;SDS011;43710;47.460;19.034;2023-05-02T14:46:43;10.48;;;3.40;;
57893;SDS011;43710;47.460;19.034;2023-05-02T14:49:46;8.98;;;3.40;;
57893;SDS011;43710;47.460;19.034;2023-05-02T14:52:54;11.05;;;4.22;;
57893;SDS011;43710;47.460;19.034;2023-05-02T14:55:57;13.38;;;4.57;;
57893;SDS011;43710;47.460;19.034;2023-05-02T14:58:59;7.82;;;3.60;;
57893;SDS011;43710;47.460;19.034;2023-05-02T15:02:01;14.87;;;3.58;;
57893;SDS011;43710;47.460;19.034;2023-05-02T15:05:04;13.85;;;4.40;;
57893;SDS011;43710;47.460;19.034;2023-05-02T15:08:08;14.60;;;4.65;;
57893;SDS011;43710;47.460;19.034;2023-05-02T15:11:11;16.10;;;3.80;;
57893;SDS011;43710;47.460;19.034;2023-05-02T15:14:13;13.05;;;4.22;;
57893;SDS011;43710;47.460;19.034;2023-05-02T15:17:15;8.68;;;3.85;;
57893;SDS011;43710;47.460;19.034;2023-05-02T15:20:18;9.38;;;3.92;;
57893;SDS011;43710;47.460;19.034;2023-05-02T15:23:21;12.25;;;3.40;;
57893;SDS011;43710;47.460;19.034;2023-05-02T15:26:23;8.70;;;3.70;;
57893;SDS011;43710;47.460;19.034;2023-05-02T15:29:27;7.78;;;3.28;;
57893;SDS011;43710;47.460;19.034;2023-05-02T15:32:29;8.38;;;3.72;;
57893;SDS011;43710;47.460;19.034;2023-05-02T15:35:31;6.30;;;3.22;;
57893;SDS011;43710;47.460;19.034;2023-05-02T15:38:33;6.90;;;2.97;;
